Time;durP1;ratioP1;P1;durP2;ratioP2;P2;SDS_P1;SDS_P2;PMS_P1;PMS_P2;Temp;Humidity;BMP_temperature;BMP_pressure;BME280_temperature;BME280_humidity;BME280_pressure;Samples;Min_cycle;Max_cycle;Signal;HPM_P1;HPM_P2
2023/12/30 00:02:16;;;;;;;3.88;1.90;;;;;;;;;;4983900;28;20588;-65
2023/12/30 00:05:10;;;;;;;4.93;2.22;;;;;;;;;;4983332;28;20062;-65
2023/12/30 00:07:57;;;;;;;3.97;2.20;;;;;;;;;;4981766;28;20061;-62
2023/12/30 00:10:51;;;;;;;3.35;2.00;;;;;;;;;;4979321;28;20058;-62
2023/12/30 00:13:38;;;;;;;4.30;2.25;;;;;;;;;;4978976;28;20149;-62
2023/12/30 00:16:32;;;;;;;4.55;1.90;;;;;;;;;;4972583;28;20108;-61
2023/12/30 00:19:00;;;;;;;2.42;1.80;;;;;;;;;;4987478;28;20053;-62
2023/12/30 00:21:27;;;;;;;3.03;1.98;;;;;;;;;;4987076;28;20077;-65
2023/12/30 00:24:03;;;;;;;6.13;2.00;;;;;;;;;;4983486;28;20061;-65
2023/12/30 00:26:30;;;;;;;5.03;2.20;;;;;;;;;;4977667;28;20058;-65
2023/12/30 00:28:57;;;;;;;10.50;2.05;;;;;;;;;;4983856;28;20054;-65
2023/12/30 00:31:31;;;;;;;4.55;2.08;;;;;;;;;;4985370;28;20786;-65
2023/12/30 00:33:59;;;;;;;5.63;1.92;;;;;;;;;;4985708;28;20550;-64
2023/12/30 00:36:33;;;;;;;6.88;2.33;;;;;;;;;;4973780;28;20634;-62
2023/12/30 00:39:00;;;;;;;5.40;2.13;;;;;;;;;;4986851;28;20046;-61
2023/12/30 00:41:27;;;;;;;5.63;2.35;;;;;;;;;;4979726;28;20057;-61
2023/12/30 00:44:02;;;;;;;5.80;2.20;;;;;;;;;;4980933;28;20069;-62
2023/12/30 00:46:29;;;;;;;2.83;1.90;;;;;;;;;;4985710;28;20112;-62
2023/12/30 00:49:03;;;;;;;6.70;2.35;;;;;;;;;;4984517;28;20137;-62
2023/12/30 00:51:30;;;;;;;;;;;;;;;;;;4984584;28;20073;-61
2023/12/30 00:53:57;;;;;;;8.18;2.15;;;;;;;;;;4983651;28;19921;-62
2023/12/30 00:56:31;;;;;;;3.58;2.13;;;;;;;;;;4978556;28;20070;-62
2023/12/30 00:58:58;;;;;;;5.93;2.10;;;;;;;;;;4980532;28;20128;-62
2023/12/30 01:01:32;;;;;;;4.03;1.75;;;;;;;;;;4979065;28;20058;-62
2023/12/30 01:03:59;;;;;;;7.75;2.13;;;;;;;;;;4982229;28;20054;-51
2023/12/30 01:06:27;;;;;;;2.20;1.65;;;;;;;;;;4982758;28;20054;-53
2023/12/30 01:09:01;;;;;;;5.68;1.92;;;;;;;;;;4980983;28;20062;-53
2023/12/30 01:11:28;;;;;;;;;;;;;;;;;;4982635;28;20132;-49
2023/12/30 01:14:02;;;;;;;3.50;1.88;;;;;;;;;;4982697;28;20008;-49
2023/12/30 01:16:30;;;;;;;6.72;2.38;;;;;;;;;;4982721;28;20057;-49
2023/12/30 01:18:57;;;;;;;3.80;1.70;;;;;;;;;;4983617;28;20209;-65
2023/12/30 01:21:31;;;;;;;4.25;1.83;;;;;;;;;;4983988;28;20085;-65
2023/12/30 01:23:58;;;;;;;10.02;2.00;;;;;;;;;;4984309;28;20136;-64
2023/12/30 01:26:32;;;;;;;7.38;1.63;;;;;;;;;;4977234;28;20132;-64
2023/12/30 01:29:05;;;;;;;3.58;1.40;;;;;;;;;;4985178;28;20108;-61
2023/12/30 01:31:40;;;;;;;5.88;1.45;;;;;;;;;;4983297;28;20065;-56
2023/12/30 01:34:14;;;;;;;3.20;1.60;;;;;;;;;;4981326;28;20494;-59
2023/12/30 01:36:48;;;;;;;4.75;1.80;;;;;;;;;;4982481;28;20433;-58
2023/12/30 01:39:15;;;;;;;5.40;2.10;;;;;;;;;;4985979;28;20787;-58
2023/12/30 01:41:42;;;;;;;5.60;2.20;;;;;;;;;;4979009;28;20058;-58
2023/12/30 01:44:17;;;;;;;3.38;1.65;;;;;;;;;;4983218;28;20109;-57
2023/12/30 01:46:44;;;;;;;4.97;2.08;;;;;;;;;;4982193;28;20477;-65
2023/12/30 01:49:12;;;;;;;8.25;1.75;;;;;;;;;;4978152;28;20062;-65
2023/12/30 01:51:47;;;;;;;6.10;2.47;;;;;;;;;;4979509;28;20399;-65
2023/12/30 01:54:16;;;;;;;6.13;2.50;;;;;;;;;;4982372;28;20057;-64
2023/12/30 01:56:50;;;;;;;6.03;2.58;;;;;;;;;;4980925;28;20093;-50
2023/12/30 01:59:18;;;;;;;8.93;2.60;;;;;;;;;;4983930;28;20058;-62
2023/12/30 02:01:46;;;;;;;5.05;2.65;;;;;;;;;;4982178;28;20090;-61
2023/12/30 02:04:20;;;;;;;6.78;2.78;;;;;;;;;;4980835;28;20109;-60
2023/12/30 02:06:47;;;;;;;;;;;;;;;;;;4985449;28;20197;-61
2023/12/30 02:09:21;;;;;;;10.82;2.30;;;;;;;;;;4982744;28;19929;-62
2023/12/30 02:11:48;;;;;;;5.22;2.10;;;;;;;;;;4982336;28;20148;-61
2023/12/30 02:14:15;;;;;;;;;;;;;;;;;;4974237;28;20054;-60
2023/12/30 02:16:50;;;;;;;11.32;2.40;;;;;;;;;;4983667;28;19922;-62
2023/12/30 02:19:17;;;;;;;5.07;1.80;;;;;;;;;;4982943;28;20552;-62
2023/12/30 02:21:51;;;;;;;7.15;2.50;;;;;;;;;;4983726;28;20057;-62
2023/12/30 02:24:20;;;;;;;4.45;1.98;;;;;;;;;;4982837;28;20521;-59
2023/12/30 02:26:47;;;;;;;5.43;1.80;;;;;;;;;;4981120;28;20070;-69
2023/12/30 02:29:33;;;;;;;4.38;1.92;;;;;;;;;;4980053;28;20058;-60
2023/12/30 02:32:07;;;;;;;6.20;2.20;;;;;;;;;;4983036;28;20054;-61
2023/12/30 02:34:42;;;;;;;7.38;2.45;;;;;;;;;;4984442;28;20109;-61
2023/12/30 02:37:09;;;;;;;8.48;2.40;;;;;;;;;;4979696;28;20462;-60
2023/12/30 02:39:37;;;;;;;6.05;2.47;;;;;;;;;;4979960;28;20057;-62
2023/12/30 02:42:11;;;;;;;6.75;1.83;;;;;;;;;;4982638;28;20054;-62
2023/12/30 02:44:38;;;;;;;7.25;2.47;;;;;;;;;;4975142;28;20070;-58
2023/12/30 02:47:05;;;;;;;12.70;2.47;;;;;;;;;;4983800;28;20058;-59
2023/12/30 02:49:41;;;;;;;8.15;2.47;;;;;;;;;;4983759;28;20105;-56
2023/12/30 02:52:09;;;;;;;4.43;2.35;;;;;;;;;;4979751;28;20062;-59
2023/12/30 02:54:43;;;;;;;5.00;2.20;;;;;;;;;;4981533;28;20046;-61
2023/12/30 02:57:16;;;;;;;9.82;3.03;;;;;;;;;;4982414;28;20062;-61
2023/12/30 02:59:51;;;;;;;7.93;2.95;;;;;;;;;;4979765;28;20116;-62
2023/12/30 03:02:18;;;;;;;9.05;2.95;;;;;;;;;;4979585;28;20105;-61
2023/12/30 03:04:45;;;;;;;8.27;2.90;;;;;;;;;;4982614;28;20049;-60
2023/12/30 03:07:19;;;;;;;7.57;2.33;;;;;;;;;;4979930;28;20066;-60
2023/12/30 03:09:46;;;;;;;;;;;;;;;;;;4982711;28;20100;-63
2023/12/30 03:12:15;;;;;;;8.70;2.85;;;;;;;;;;4976355;28;19929;-65
2023/12/30 03:14:49;;;;;;;6.15;2.50;;;;;;;;;;4977251;28;20062;-64
2023/12/30 03:17:16;;;;;;;9.90;2.40;;;;;;;;;;4982671;28;20106;-65
2023/12/30 03:19:50;;;;;;;6.40;2.95;;;;;;;;;;4983949;28;20054;-65
2023/12/30 03:22:17;;;;;;;12.57;3.25;;;;;;;;;;4983409;28;20199;-62
2023/12/30 03:24:44;;;;;;;11.10;2.60;;;;;;;;;;4982629;28;20094;-60
2023/12/30 03:27:18;;;;;;;6.35;2.80;;;;;;;;;;4980791;28;20059;-62
2023/12/30 03:29:51;;;;;;;6.13;2.42;;;;;;;;;;4983223;28;20121;-60
2023/12/30 03:32:25;;;;;;;7.65;2.60;;;;;;;;;;4987372;28;20057;-62
2023/12/30 03:34:59;;;;;;;4.25;2.58;;;;;;;;;;4984748;28;20050;-61
2023/12/30 03:37:33;;;;;;;4.95;2.55;;;;;;;;;;4985071;28;20097;-61
2023/12/30 03:40:10;;;;;;;7.55;2.90;;;;;;;;;;4985805;28;20068;-62
2023/12/30 03:42:37;;;;;;;15.73;3.20;;;;;;;;;;4984779;28;20140;-57
2023/12/30 03:45:12;;;;;;;12.55;3.28;;;;;;;;;;4986687;28;20506;-60
2023/12/30 03:47:39;;;;;;;10.80;3.08;;;;;;;;;;4976993;28;20063;-57
2023/12/30 03:50:06;;;;;;;6.68;2.78;;;;;;;;;;4986470;28;20613;-59
2023/12/30 03:52:40;;;;;;;6.72;2.90;;;;;;;;;;4985407;28;20050;-62
2023/12/30 03:55:07;;;;;;;8.07;3.15;;;;;;;;;;4984851;28;20148;-62
2023/12/30 03:57:41;;;;;;;8.93;2.92;;;;;;;;;;4985923;28;20054;-62
2023/12/30 04:00:08;;;;;;;;;;;;;;;;;;4986101;28;20163;-62
2023/12/30 04:02:35;;;;;;;11.55;2.97;;;;;;;;;;4985652;28;20348;-62
2023/12/30 04:05:09;;;;;;;4.72;2.80;;;;;;;;;;4982244;28;20054;-63
2023/12/30 04:07:36;;;;;;;6.70;2.83;;;;;;;;;;4985725;28;20433;-62
2023/12/30 04:10:03;;;;;;;6.90;3.10;;;;;;;;;;4983086;28;20632;-68
2023/12/30 04:12:38;;;;;;;7.82;3.03;;;;;;;;;;4985051;28;20073;-68
2023/12/30 04:15:07;;;;;;;5.55;2.63;;;;;;;;;;4985950;28;20565;-68
2023/12/30 04:17:34;;;;;;;7.22;3.10;;;;;;;;;;4979184;28;20054;-68
2023/12/30 04:20:08;;;;;;;17.33;3.60;;;;;;;;;;4988094;28;20088;-62
2023/12/30 04:22:35;;;;;;;;;;;;;;;;;;4986687;28;23881;-62
2023/12/30 04:25:09;;;;;;;9.82;3.05;;;;;;;;;;4984955;28;20644;-61
2023/12/30 04:27:36;;;;;;;;;;;;;;;;;;4985312;28;20506;-62
2023/12/30 04:30:09;;;;;;;6.38;3.20;;;;;;;;;;4983277;28;20009;-61
2023/12/30 04:32:44;;;;;;;7.72;3.55;;;;;;;;;;4983399;28;20465;-61
2023/12/30 04:35:11;;;;;;;9.15;2.80;;;;;;;;;;4984614;28;20054;-60
2023/12/30 04:37:45;;;;;;;11.40;3.00;;;;;;;;;;4985420;28;20502;-47
2023/12/30 04:40:15;;;;;;;5.57;3.20;;;;;;;;;;4963800;28;20100;-50
2023/12/30 04:42:42;;;;;;;12.88;4.03;;;;;;;;;;4984458;28;20154;-47
2023/12/30 04:45:17;;;;;;;5.70;2.70;;;;;;;;;;4985295;28;20081;-48
2023/12/30 04:47:44;;;;;;;9.02;2.70;;;;;;;;;;4986344;28;20077;-66
2023/12/30 04:50:19;;;;;;;5.75;2.42;;;;;;;;;;4987013;28;20062;-61
2023/12/30 04:52:46;;;;;;;11.60;2.42;;;;;;;;;;4982875;28;20442;-67
2023/12/30 04:55:20;;;;;;;9.45;2.95;;;;;;;;;;4985258;28;20066;-68
2023/12/30 04:57:48;;;;;;;11.10;2.97;;;;;;;;;;4983709;28;20066;-68
2023/12/30 05:00:16;;;;;;;9.95;2.63;;;;;;;;;;4984759;28;20061;-68
2023/12/30 05:02:56;;;;;;;10.48;3.50;;;;;;;;;;4982287;28;20086;-68
2023/12/30 05:05:30;;;;;;;6.20;2.60;;;;;;;;;;4983571;28;20068;-68
2023/12/30 05:08:24;;;;;;;3.97;2.15;;;;;;;;;;4984660;28;20510;-61
2023/12/30 05:11:11;;;;;;;13.10;2.75;;;;;;;;;;4984714;28;20046;-61
2023/12/30 05:14:05;;;;;;;8.38;2.83;;;;;;;;;;4978797;28;20046;-61
2023/12/30 05:16:52;;;;;;;8.88;2.95;;;;;;;;;;4987037;28;20560;-60
2023/12/30 05:19:46;;;;;;;9.85;3.17;;;;;;;;;;4986732;28;20506;-64
2023/12/30 05:22:33;;;;;;;8.30;2.88;;;;;;;;;;4986483;28;20054;-64
2023/12/30 05:25:27;;;;;;;16.67;2.72;;;;;;;;;;4986634;28;20391;-64
2023/12/30 05:28:20;;;;;;;11.38;3.20;;;;;;;;;;4984765;28;20062;-63
2023/12/30 05:31:21;;;;;;;11.13;3.15;;;;;;;;;;4984021;28;20120;-63
2023/12/30 05:34:16;;;;;;;12.82;3.35;;;;;;;;;;4983649;28;20517;-57
2023/12/30 05:37:10;;;;;;;11.55;3.22;;;;;;;;;;4981776;28;20616;-50
2023/12/30 05:39:57;;;;;;;14.90;3.40;;;;;;;;;;4985330;28;20057;-50
2023/12/30 05:42:51;;;;;;;9.80;2.95;;;;;;;;;;4979130;28;20054;-54
2023/12/30 05:45:39;;;;;;;6.28;2.92;;;;;;;;;;4985195;28;20502;-57
2023/12/30 05:48:32;;;;;;;11.27;2.90;;;;;;;;;;4976064;28;20124;-56
2023/12/30 05:51:19;;;;;;;13.10;3.50;;;;;;;;;;4985162;28;20138;-54
2023/12/30 05:54:13;;;;;;;9.85;3.03;;;;;;;;;;4980958;28;20081;-54
2023/12/30 05:57:00;;;;;;;10.40;3.42;;;;;;;;;;4987172;28;20058;-49
2023/12/30 05:59:54;;;;;;;11.18;3.15;;;;;;;;;;4986291;28;20062;-54
2023/12/30 06:02:41;;;;;;;13.73;3.20;;;;;;;;;;4988507;28;20046;-61
2023/12/30 06:05:35;;;;;;;11.43;3.20;;;;;;;;;;4985066;28;20054;-62
2023/12/30 06:08:29;;;;;;;8.38;2.50;;;;;;;;;;4980424;28;20136;-61
2023/12/30 06:11:24;;;;;;;12.55;3.65;;;;;;;;;;4984880;28;20054;-62
2023/12/30 06:14:11;;;;;;;10.90;3.63;;;;;;;;;;4986073;28;20050;-64
2023/12/30 06:17:05;;;;;;;6.82;3.13;;;;;;;;;;4986394;28;20058;-64
2023/12/30 06:19:52;;;;;;;7.00;3.13;;;;;;;;;;4987336;28;20077;-64
2023/12/30 06:22:46;;;;;;;9.30;3.58;;;;;;;;;;4982503;28;20050;-64
2023/12/30 06:25:34;;;;;;;8.10;3.03;;;;;;;;;;4981784;28;20058;-64
2023/12/30 06:28:40;;;;;;;7.55;3.05;;;;;;;;;;4982105;28;20113;-64
2023/12/30 06:31:28;;;;;;;12.00;3.35;;;;;;;;;;4982906;28;20061;-65
2023/12/30 06:34:22;;;;;;;6.28;3.65;;;;;;;;;;4984143;28;20058;-65
2023/12/30 06:37:09;;;;;;;8.63;3.22;;;;;;;;;;4983531;28;20046;-64
2023/12/30 06:40:03;;;;;;;11.63;3.45;;;;;;;;;;4983794;28;20137;-64
2023/12/30 06:42:57;;;;;;;13.98;3.15;;;;;;;;;;4984311;28;20054;-56
2023/12/30 06:45:44;;;;;;;11.70;3.95;;;;;;;;;;4982992;28;20623;-65
2023/12/30 06:48:38;;;;;;;13.18;3.45;;;;;;;;;;4980581;28;20072;-64
2023/12/30 06:51:25;;;;;;;9.75;3.70;;;;;;;;;;4981084;28;20136;-64
2023/12/30 06:54:20;;;;;;;11.38;3.15;;;;;;;;;;4983511;28;20065;-65
2023/12/30 06:57:06;;;;;;;4.80;2.70;;;;;;;;;;4980587;28;20104;-64
2023/12/30 06:59:59;;;;;;;8.98;2.85;;;;;;;;;;4982827;28;20054;-61
2023/12/30 07:02:54;;;;;;;12.10;2.90;;;;;;;;;;4983386;28;20058;-61
2023/12/30 07:05:48;;;;;;;11.43;3.20;;;;;;;;;;4979299;28;20046;-60
2023/12/30 07:08:35;;;;;;;9.13;2.90;;;;;;;;;;4981063;28;20511;-61
2023/12/30 07:11:29;;;;;;;8.77;3.13;;;;;;;;;;4983645;28;20521;-60
2023/12/30 07:14:16;;;;;;;10.70;2.90;;;;;;;;;;4980174;28;20065;-60
2023/12/30 07:17:10;;;;;;;11.13;3.40;;;;;;;;;;4982629;28;20517;-61
2023/12/30 07:19:58;;;;;;;10.00;2.75;;;;;;;;;;4980644;28;20526;-61
2023/12/30 07:22:50;;;;;;;9.48;2.90;;;;;;;;;;4980706;28;20105;-59
2023/12/30 07:25:39;;;;;;;14.07;3.30;;;;;;;;;;4971253;28;20477;-59
2023/12/30 07:28:38;;;;;;;7.35;2.80;;;;;;;;;;4974758;28;20065;-56
2023/12/30 07:31:25;;;;;;;7.68;3.42;;;;;;;;;;4983319;28;20062;-57
2023/12/30 07:34:20;;;;;;;8.27;3.53;;;;;;;;;;4981261;28;20062;-59
2023/12/30 07:37:07;;;;;;;15.98;3.95;;;;;;;;;;4968550;28;20109;-55
2023/12/30 07:40:02;;;;;;;10.63;3.00;;;;;;;;;;4980486;28;20054;-64
2023/12/30 07:42:48;;;;;;;12.47;3.57;;;;;;;;;;4974419;28;20042;-58
2023/12/30 07:45:43;;;;;;;13.43;3.75;;;;;;;;;;4979218;28;20541;-56
2023/12/30 07:48:31;;;;;;;12.32;3.45;;;;;;;;;;4980749;28;20064;-59
2023/12/30 07:51:24;;;;;;;14.15;3.20;;;;;;;;;;4982366;28;20065;-58
2023/12/30 07:54:12;;;;;;;13.05;3.03;;;;;;;;;;4983517;28;20089;-56
2023/12/30 07:57:05;;;;;;;8.10;2.47;;;;;;;;;;4977850;28;20063;-60
2023/12/30 07:59:32;;;;;;;10.80;2.97;;;;;;;;;;4981825;28;20104;-61
2023/12/30 08:01:59;;;;;;;6.38;2.42;;;;;;;;;;4982721;28;20050;-59
2023/12/30 08:04:33;;;;;;;10.40;2.35;;;;;;;;;;4984327;28;20794;-61
2023/12/30 08:07:07;;;;;;;12.63;2.25;;;;;;;;;;4979835;28;20708;-60
2023/12/30 08:09:35;;;;;;;8.55;2.60;;;;;;;;;;4983110;28;20054;-61
2023/12/30 08:12:28;;;;;;;7.53;2.50;;;;;;;;;;4980848;28;20066;-62
2023/12/30 08:15:15;;;;;;;7.07;2.50;;;;;;;;;;4981669;28;20512;-56
2023/12/30 08:18:09;;;;;;;7.78;2.60;;;;;;;;;;4987086;28;20046;-51
2023/12/30 08:21:03;;;;;;;10.05;2.55;;;;;;;;;;4986051;28;20054;-49
2023/12/30 08:23:51;;;;;;;8.20;2.30;;;;;;;;;;4987708;28;20132;-49
2023/12/30 08:26:45;;;;;;;6.60;2.53;;;;;;;;;;4987627;28;20297;-49
2023/12/30 08:29:38;;;;;;;11.07;3.00;;;;;;;;;;4985301;28;20104;-49
2023/12/30 08:32:40;;;;;;;11.13;2.72;;;;;;;;;;4987596;28;20711;-49
2023/12/30 08:35:27;;;;;;;6.75;2.45;;;;;;;;;;4987695;28;20070;-61
2023/12/30 08:38:21;;;;;;;13.27;2.70;;;;;;;;;;4973946;28;20058;-58
2023/12/30 08:41:14;;;;;;;7.28;3.38;;;;;;;;;;4980345;28;20109;-61
2023/12/30 08:44:05;;;;;;;9.63;2.47;;;;;;;;;;4960306;28;20050;-51
2023/12/30 08:46:52;;;;;;;6.38;3.10;;;;;;;;;;4981317;28;20050;-68
2023/12/30 08:49:46;;;;;;;14.02;3.13;;;;;;;;;;4982552;28;20046;-68
2023/12/30 08:52:33;;;;;;;10.80;3.50;;;;;;;;;;4983581;28;20144;-67
2023/12/30 08:55:28;;;;;;;4.90;2.53;;;;;;;;;;4980601;28;20050;-67
2023/12/30 08:58:16;;;;;;;11.55;2.53;;;;;;;;;;4975791;28;20042;-67
2023/12/30 09:01:10;;;;;;;7.30;2.53;;;;;;;;;;4985853;28;20086;-67
2023/12/30 09:03:57;;;;;;;9.38;2.58;;;;;;;;;;4978723;28;21548;-50
2023/12/30 09:06:52;;;;;;;9.95;2.70;;;;;;;;;;4986186;28;20137;-56
2023/12/30 09:09:38;;;;;;;9.50;3.08;;;;;;;;;;4984631;28;20081;-55
2023/12/30 09:12:32;;;;;;;4.70;2.70;;;;;;;;;;4983387;28;20057;-56
2023/12/30 09:15:19;;;;;;;8.18;3.20;;;;;;;;;;4984173;28;20509;-55
2023/12/30 09:18:13;;;;;;;8.95;2.75;;;;;;;;;;4981052;28;20533;-54
2023/12/30 09:21:07;;;;;;;6.28;3.17;;;;;;;;;;4971730;28;20802;-59
2023/12/30 09:23:54;;;;;;;13.13;2.92;;;;;;;;;;4980523;28;20132;-60
2023/12/30 09:26:48;;;;;;;10.95;2.65;;;;;;;;;;4979865;28;20477;-61
2023/12/30 09:29:48;;;;;;;8.40;2.97;;;;;;;;;;4982232;28;20066;-59
2023/12/30 09:32:43;;;;;;;9.77;3.03;;;;;;;;;;4982971;28;20046;-56
2023/12/30 09:35:39;;;;;;;10.07;2.45;;;;;;;;;;4984720;28;20054;-61
2023/12/30 09:38:26;;;;;;;10.02;2.30;;;;;;;;;;4982571;28;20058;-62
2023/12/30 09:41:21;;;;;;;12.00;2.83;;;;;;;;;;4983046;28;20491;-61
2023/12/30 09:44:09;;;;;;;10.05;2.75;;;;;;;;;;4983245;28;22168;-61
2023/12/30 09:47:07;;;;;;;5.13;2.20;;;;;;;;;;4984884;28;20042;-61
2023/12/30 09:49:51;;;;;;;7.22;2.35;;;;;;;;;;4972929;28;20057;-57
2023/12/30 09:52:45;;;;;;;6.18;2.40;;;;;;;;;;4982455;28;20058;-57
2023/12/30 09:55:32;;;;;;;7.70;2.70;;;;;;;;;;4982733;28;20058;-56
2023/12/30 09:58:26;;;;;;;5.28;2.58;;;;;;;;;;4981626;28;20101;-56
2023/12/30 10:01:21;;;;;;;12.63;2.78;;;;;;;;;;4984288;28;20050;-55
2023/12/30 10:04:08;;;;;;;6.25;2.60;;;;;;;;;;4981705;28;20065;-64
2023/12/30 10:07:02;;;;;;;10.35;2.72;;;;;;;;;;4978407;28;20050;-64
2023/12/30 10:09:56;;;;;;;11.85;2.95;;;;;;;;;;4981197;28;20129;-64
2023/12/30 10:12:43;;;;;;;6.57;2.80;;;;;;;;;;4982273;28;20141;-64
2023/12/30 10:15:40;;;;;;;8.00;2.53;;;;;;;;;;4977988;28;20926;-64
2023/12/30 10:18:34;;;;;;;8.40;2.60;;;;;;;;;;4980283;28;20058;-60
2023/12/30 10:21:28;;;;;;;6.70;2.75;;;;;;;;;;4978555;28;20073;-61
2023/12/30 10:24:16;;;;;;;4.05;2.50;;;;;;;;;;4977559;28;20060;-61
2023/12/30 10:27:10;;;;;;;8.13;2.70;;;;;;;;;;4967541;28;20054;-64
2023/12/30 10:30:02;;;;;;;10.35;2.45;;;;;;;;;;4978963;28;20054;-61
2023/12/30 10:33:07;;;;;;;6.32;2.72;;;;;;;;;;4969732;28;20054;-67
2023/12/30 10:35:54;;;;;;;9.88;2.13;;;;;;;;;;4979548;28;20057;-66
2023/12/30 10:38:49;;;;;;;10.77;2.75;;;;;;;;;;4976515;28;20145;-67
2023/12/30 10:41:36;;;;;;;6.53;2.63;;;;;;;;;;4971971;28;20117;-66
2023/12/30 10:44:30;;;;;;;5.78;2.10;;;;;;;;;;4978948;28;20473;-66
2023/12/30 10:47:18;;;;;;;5.45;2.05;;;;;;;;;;4973446;28;20054;-60
2023/12/30 10:50:12;;;;;;;8.10;2.15;;;;;;;;;;4978060;28;20066;-59
2023/12/30 10:53:04;;;;;;;8.03;2.10;;;;;;;;;;4980650;28;20133;-58
2023/12/30 10:56:03;;;;;;;6.53;2.17;;;;;;;;;;4979131;28;20305;-59
2023/12/30 10:58:51;;;;;;;5.97;2.40;;;;;;;;;;4975958;28;20057;-59
2023/12/30 11:01:45;;;;;;;8.32;2.58;;;;;;;;;;4979446;28;20107;-60
2023/12/30 11:04:32;;;;;;;5.93;1.88;;;;;;;;;;4976159;28;20529;-59
2023/12/30 11:07:26;;;;;;;6.70;2.47;;;;;;;;;;4960568;28;20145;-60
2023/12/30 11:10:21;;;;;;;8.35;4.05;;;;;;;;;;4978150;28;20624;-59
2023/12/30 11:13:15;;;;;;;13.50;6.03;;;;;;;;;;4975289;28;20054;-60
2023/12/30 11:16:15;;;;;;;12.50;3.33;;;;;;;;;;4980700;28;20061;-59
2023/12/30 11:19:09;;;;;;;12.63;4.25;;;;;;;;;;4980354;28;20057;-59
2023/12/30 11:21:59;;;;;;;11.25;4.35;;;;;;;;;;4980557;28;20719;-59
2023/12/30 11:24:54;;;;;;;11.52;3.83;;;;;;;;;;4981129;28;20054;-63
2023/12/30 11:27:41;;;;;;;;;;;;;;;;;;4973501;28;20133;-67
2023/12/30 11:31:06;;;;;;;7.32;2.75;;;;;;;;;;4982417;28;19964;-66
2023/12/30 11:34:01;;;;;;;10.63;3.08;;;;;;;;;;4978389;28;20062;-66
2023/12/30 11:36:57;;;;;;;7.25;2.55;;;;;;;;;;4979831;28;20056;-66
2023/12/30 11:39:46;;;;;;;7.50;2.78;;;;;;;;;;4980348;28;20070;-66
2023/12/30 11:42:40;;;;;;;6.72;2.47;;;;;;;;;;4980381;28;20069;-58
2023/12/30 11:45:27;;;;;;;7.57;2.65;;;;;;;;;;4980043;28;20094;-60
2023/12/30 11:48:21;;;;;;;11.82;2.80;;;;;;;;;;4977471;28;20050;-61
2023/12/30 11:51:09;;;;;;;14.55;2.70;;;;;;;;;;4981373;28;20442;-58
2023/12/30 11:54:03;;;;;;;9.93;3.55;;;;;;;;;;4983194;28;20054;-60
2023/12/30 11:56:50;;;;;;;14.73;3.10;;;;;;;;;;4979244;28;20073;-52
2023/12/30 11:59:44;;;;;;;18.23;4.13;;;;;;;;;;4973688;28;20315;-49
2023/12/30 12:02:13;;;;;;;15.93;4.28;;;;;;;;;;4984013;28;20062;-49
2023/12/30 12:04:42;;;;;;;11.65;3.72;;;;;;;;;;4981870;28;20053;-50
2023/12/30 12:07:16;;;;;;;12.48;4.65;;;;;;;;;;4978178;28;20054;-51
2023/12/30 12:10:03;;;;;;;12.65;5.10;;;;;;;;;;4983147;28;20494;-54
2023/12/30 12:13:02;;;;;;;15.38;4.90;;;;;;;;;;4983706;28;20134;-67
2023/12/30 12:15:48;;;;;;;11.73;4.72;;;;;;;;;;4982265;28;20082;-66
2023/12/30 12:18:42;;;;;;;7.55;3.70;;;;;;;;;;4983543;28;20057;-66
2023/12/30 12:21:30;;;;;;;9.43;3.72;;;;;;;;;;4985161;28;20054;-64
2023/12/30 12:24:25;;;;;;;6.70;3.25;;;;;;;;;;4976623;28;20116;-66
2023/12/30 12:27:11;;;;;;;8.35;3.42;;;;;;;;;;4984972;28;20050;-66
2023/12/30 12:30:12;;;;;;;10.15;3.70;;;;;;;;;;4978839;28;20054;-66
2023/12/30 12:32:59;;;;;;;9.90;3.42;;;;;;;;;;4980763;28;20046;-66
2023/12/30 12:35:53;;;;;;;5.95;3.10;;;;;;;;;;4977630;28;20453;-66
2023/12/30 12:38:41;;;;;;;6.57;3.20;;;;;;;;;;4982151;28;20518;-66
2023/12/30 12:41:36;;;;;;;6.43;4.15;;;;;;;;;;4978128;28;20429;-49
2023/12/30 12:44:23;;;;;;;12.25;3.80;;;;;;;;;;4984116;28;20756;-49
2023/12/30 12:47:17;;;;;;;12.23;4.70;;;;;;;;;;4984928;28;20055;-50
2023/12/30 12:50:11;;;;;;;9.07;4.47;;;;;;;;;;4979450;28;21609;-60
2023/12/30 12:52:58;;;;;;;9.00;4.90;;;;;;;;;;4984378;28;21009;-55
2023/12/30 12:55:52;;;;;;;8.18;4.88;;;;;;;;;;4983083;28;20108;-55
2023/12/30 12:58:46;;;;;;;8.10;4.55;;;;;;;;;;4981493;28;20569;-55
2023/12/30 13:01:33;;;;;;;11.65;4.40;;;;;;;;;;4982700;28;20054;-56
2023/12/30 13:04:27;;;;;;;13.45;4.10;;;;;;;;;;4984885;28;20054;-55
2023/12/30 13:07:14;;;;;;;8.25;4.22;;;;;;;;;;4984684;28;20054;-56
2023/12/30 13:12:49;;;;;;;13.10;5.88;;;;;;;;;;4984092;28;20522;-60
2023/12/30 13:15:44;;;;;;;14.27;6.10;;;;;;;;;;4984308;28;20797;-59
2023/12/30 13:18:30;;;;;;;18.60;7.05;;;;;;;;;;4984282;28;20077;-63
2023/12/30 13:21:24;;;;;;;21.80;6.40;;;;;;;;;;4971663;28;20050;-64
2023/12/30 13:24:11;;;;;;;17.50;6.28;;;;;;;;;;4980496;28;20042;-63
2023/12/30 13:27:06;;;;;;;18.55;5.45;;;;;;;;;;4980748;28;20066;-63
2023/12/30 13:29:59;;;;;;;15.77;4.50;;;;;;;;;;4980584;28;20046;-63
2023/12/30 13:32:56;;;;;;;22.42;5.38;;;;;;;;;;4980555;28;20577;-63
2023/12/30 13:35:50;;;;;;;21.77;5.68;;;;;;;;;;4981367;28;20077;-63
2023/12/30 13:38:50;;;;;;;22.63;6.05;;;;;;;;;;4970373;28;20051;-46
2023/12/30 13:41:39;;;;;;;18.60;6.00;;;;;;;;;;4982012;28;20112;-46
2023/12/30 13:44:42;;;;;;;17.83;5.45;;;;;;;;;;4974476;28;20058;-47
2023/12/30 13:47:38;;;;;;;19.13;5.22;;;;;;;;;;4978735;28;20113;-63
2023/12/30 13:50:26;;;;;;;20.88;5.80;;;;;;;;;;4980628;28;20518;-56
2023/12/30 13:53:06;;;;;;;15.95;6.20;;;;;;;;;;4982587;28;20054;-52
2023/12/30 13:56:03;;;;;;;18.77;5.80;;;;;;;;;;4979110;28;20502;-54
2023/12/30 13:58:49;;;;;;;18.10;4.80;;;;;;;;;;4983138;28;20042;-55
2023/12/30 14:01:43;;;;;;;11.27;4.72;;;;;;;;;;4982072;28;20082;-56
2023/12/30 14:04:33;;;;;;;13.38;4.50;;;;;;;;;;4978529;28;20064;-63
2023/12/30 14:07:28;;;;;;;12.82;5.18;;;;;;;;;;4978893;28;20621;-62
2023/12/30 14:10:06;;;;;;;14.63;5.10;;;;;;;;;;4979465;28;20125;-64
2023/12/30 14:12:52;;;;;;;27.42;6.32;;;;;;;;;;4975436;28;20058;-63
2023/12/30 14:15:46;;;;;;;23.45;5.95;;;;;;;;;;4978566;28;20714;-63
2023/12/30 14:18:38;;;;;;;21.67;7.18;;;;;;;;;;4974570;28;20176;-56
2023/12/30 14:21:25;;;;;;;21.05;8.95;;;;;;;;;;4969444;28;20061;-55
2023/12/30 14:24:19;;;;;;;26.27;8.38;;;;;;;;;;4971488;28;20058;-57
2023/12/30 14:27:06;;;;;;;17.90;9.00;;;;;;;;;;4968812;28;20050;-56
2023/12/30 14:30:17;;;;;;;23.33;8.27;;;;;;;;;;4972198;28;20117;-57
2023/12/30 14:33:11;;;;;;;27.38;8.90;;;;;;;;;;4970822;28;20538;-59
2023/12/30 14:36:05;;;;;;;24.35;8.38;;;;;;;;;;4973908;28;20509;-53
2023/12/30 14:38:52;;;;;;;24.33;8.43;;;;;;;;;;4957746;28;20983;-67
2023/12/30 14:41:47;;;;;;;20.15;8.05;;;;;;;;;;4976169;28;20236;-67
2023/12/30 14:44:33;;;;;;;20.20;7.15;;;;;;;;;;4976762;28;20579;-67
2023/12/30 14:47:27;;;;;;;21.23;7.65;;;;;;;;;;4974921;28;20062;-69
2023/12/30 14:50:14;;;;;;;19.13;7.45;;;;;;;;;;4969594;28;21101;-68
2023/12/30 14:53:08;;;;;;;16.38;6.82;;;;;;;;;;4970095;28;20058;-59
2023/12/30 14:55:55;;;;;;;18.23;7.20;;;;;;;;;;4972889;28;20477;-60
2023/12/30 14:58:49;;;;;;;14.13;6.90;;;;;;;;;;4970498;28;20054;-58
2023/12/30 15:01:36;;;;;;;19.33;7.70;;;;;;;;;;4972955;28;20062;-60
2023/12/30 15:04:30;;;;;;;18.00;6.80;;;;;;;;;;4973008;28;20437;-60
2023/12/30 15:07:25;;;;;;;15.85;6.72;;;;;;;;;;4976824;28;20522;-59
2023/12/30 15:10:23;;;;;;;16.70;5.75;;;;;;;;;;4978351;28;20059;-58
2023/12/30 15:13:11;;;;;;;17.15;6.05;;;;;;;;;;4976359;28;20057;-58
2023/12/30 15:16:05;;;;;;;18.38;6.20;;;;;;;;;;4972774;28;20141;-57
2023/12/30 15:18:59;;;;;;;21.33;6.32;;;;;;;;;;4969292;28;20510;-59
2023/12/30 15:21:46;;;;;;;19.50;5.70;;;;;;;;;;4947075;28;20050;-59
2023/12/30 15:24:40;;;;;;;18.55;6.45;;;;;;;;;;4974801;28;20070;-60
2023/12/30 15:27:27;;;;;;;20.85;5.97;;;;;;;;;;4974647;28;20501;-59
2023/12/30 15:30:27;;;;;;;14.25;6.28;;;;;;;;;;4972085;28;20072;-63
2023/12/30 15:33:21;;;;;;;14.00;5.38;;;;;;;;;;4974600;28;20121;-56
2023/12/30 15:36:09;;;;;;;8.93;4.00;;;;;;;;;;4977463;28;20426;-57
2023/12/30 15:39:03;;;;;;;11.43;4.78;;;;;;;;;;4976168;28;20043;-56
2023/12/30 15:41:58;;;;;;;12.93;4.28;;;;;;;;;;4980498;28;20120;-52
2023/12/30 15:44:50;;;;;;;8.77;3.70;;;;;;;;;;4973214;28;20054;-54
2023/12/30 15:47:39;;;;;;;11.43;4.68;;;;;;;;;;4971504;28;20054;-60
2023/12/30 15:50:31;;;;;;;9.85;4.40;;;;;;;;;;4969211;28;20138;-60
2023/12/30 15:53:18;;;;;;;11.48;4.68;;;;;;;;;;4978218;28;20050;-55
2023/12/30 15:56:12;;;;;;;12.00;4.60;;;;;;;;;;4981626;28;20061;-56
2023/12/30 15:59:00;;;;;;;11.60;4.60;;;;;;;;;;4959567;28;20064;-50
2023/12/30 16:01:53;;;;;;;9.23;4.50;;;;;;;;;;4955685;28;20116;-59
2023/12/30 16:04:47;;;;;;;10.68;4.45;;;;;;;;;;4975286;28;20652;-60
2023/12/30 16:07:34;;;;;;;11.10;4.85;;;;;;;;;;4980045;28;20418;-60
2023/12/30 16:10:28;;;;;;;8.00;4.00;;;;;;;;;;4978435;28;20053;-60
2023/12/30 16:13:15;;;;;;;8.05;3.50;;;;;;;;;;4978326;28;20055;-60
2023/12/30 16:16:09;;;;;;;5.22;3.15;;;;;;;;;;4978758;28;20055;-58
2023/12/30 16:18:58;;;;;;;3.63;2.42;;;;;;;;;;4976023;28;20109;-61
2023/12/30 16:21:50;;;;;;;4.50;2.45;;;;;;;;;;4983572;28;20058;-61
2023/12/30 16:24:37;;;;;;;3.65;2.17;;;;;;;;;;4978120;28;20506;-61
2023/12/30 16:27:31;;;;;;;3.00;1.90;;;;;;;;;;4979799;28;20058;-62